KATL

Hartsfield - Jackson Atlanta International Airport

Atlanta, Georgia, USA
METAR KATL 210452Z 23005KT 10SM SCT008 BKN013 OVC020 23/21 A3008 RMK AO2 SLP175 T02330211 402940228
Observed Flight Rules
Aug-21 @ 04:52 UTC (9 hours ago) Marginal Visual Flight Rules
Wind Visibility Clouds
230° at 5 knots 10 miles
  • Scattered at 800' AGL
  • Broken at 1,300' AGL
  • Overcast at 2,000' AGL
Temperatures Readings
Current 23°C / 73°F
Dewpoint 21°C / 70°F
Humidity 89%
Altimeter 30.08" Hg
Pressure 1017.5 hPa
Elevation 296
METAR KATL 210452Z 23005KT 10SM SCT008 BKN013 OVC020 23/21 A3008 RMK AO2 SLP175 T02330211 402940228
Observed Flight Rules
Aug-21 @ 04:52 UTC
(9 hours ago)
MVFR
Wind Visibility
230° at 5 knots 10 miles
Clouds
  • Scattered at 800' AGL
  • Broken at 1,300' AGL
  • Overcast at 2,000' AGL
Temperature Dewpoint
23°C / 73°F 21°C / 70°F
Humidity Altimeter Pressure
89% 30.08" Hg 1017.5 hPa